Time;durP1;ratioP1;P1;durP2;ratioP2;P2;SDS_P1;SDS_P2;PMS_P1;PMS_P2;Temp;Humidity;BMP_temperature;BMP_pressure;BME280_temperature;BME280_humidity;BME280_pressure;Samples;Min_cycle;Max_cycle;Signal;HPM_P1;HPM_P2
2021/08/15 00:02:25;;;;;;;7.65;3.85;;;;;;;18.24;72.99;101845.38;5013699;28;20022;-66
2021/08/15 00:04:50;;;;;;;8.75;3.55;;;;;;;18.14;73.30;101843.25;5014187;28;20028;-66
2021/08/15 00:07:16;;;;;;;9.75;4.20;;;;;;;18.08;73.31;101832.91;5013846;28;20476;-67
2021/08/15 00:09:41;;;;;;;7.15;3.85;;;;;;;18.01;73.52;101836.91;5010799;28;20049;-67
2021/08/15 00:12:07;;;;;;;8.82;3.90;;;;;;;17.92;73.97;101821.38;5013707;28;20022;-67
2021/08/15 00:14:33;;;;;;;10.25;4.63;;;;;;;17.84;74.24;101803.94;5013128;28;20041;-65
2021/08/15 00:16:59;;;;;;;8.02;4.10;;;;;;;17.77;74.51;101807.91;5014307;28;20026;-66
2021/08/15 00:19:24;;;;;;;9.05;3.40;;;;;;;17.71;74.33;101805.63;5028495;28;20041;-67
2021/08/15 00:21:50;;;;;;;8.48;3.88;;;;;;;17.65;74.60;101811.34;5033032;28;20026;-66
2021/08/15 00:24:15;;;;;;;8.30;3.75;;;;;;;17.62;75.06;101819.56;5032872;28;20030;-66
2021/08/15 00:26:40;;;;;;;6.60;3.55;;;;;;;17.58;75.53;101826.06;5031281;28;20029;-66
2021/08/15 00:29:06;;;;;;;5.68;3.13;;;;;;;17.59;75.44;101814.38;5031466;28;20049;-67
2021/08/15 00:31:31;;;;;;;8.05;3.60;;;;;;;17.57;75.36;101818.97;5032821;28;20493;-67
2021/08/15 00:33:57;;;;;;;5.60;3.08;;;;;;;17.51;75.60;101810.34;5019395;28;20025;-67
2021/08/15 00:36:22;;;;;;;8.90;3.30;;;;;;;17.48;75.96;101804.28;5013301;28;20057;-67
2021/08/15 00:38:48;;;;;;;6.68;3.03;;;;;;;17.42;76.02;101808.22;5014223;28;20088;-67
2021/08/15 00:41:13;;;;;;;8.30;3.00;;;;;;;17.39;75.82;101807.50;5013948;28;20468;-67
2021/08/15 00:43:38;;;;;;;9.00;3.30;;;;;;;17.35;76.05;101798.78;5013284;28;20101;-67
2021/08/15 00:46:13;;;;;;;8.48;3.45;;;;;;;17.33;76.04;101800.72;5012681;28;20496;-66
2021/08/15 00:48:39;;;;;;;8.75;3.35;;;;;;;17.28;76.14;101790.25;5013407;28;20041;-66
2021/08/15 00:51:05;;;;;;;10.40;3.35;;;;;;;17.27;76.22;101793.88;5013081;28;20180;-66
2021/08/15 00:53:32;;;;;;;8.35;3.25;;;;;;;17.28;76.67;101794.78;5012403;28;20478;-66
2021/08/15 00:55:58;;;;;;;9.10;3.53;;;;;;;17.29;76.35;101797.34;5011995;28;20057;-66
2021/08/15 00:58:24;;;;;;;6.53;3.22;;;;;;;17.32;76.71;101799.00;5012633;28;20025;-66
2021/08/15 01:00:49;;;;;;;7.88;3.20;;;;;;;17.35;76.11;101804.16;5012788;28;20026;-67
2021/08/15 01:03:14;;;;;;;5.95;2.90;;;;;;;17.37;75.67;101802.25;5012538;28;20041;-67
2021/08/15 01:05:39;;;;;;;6.15;2.92;;;;;;;17.40;75.66;101795.88;5012607;28;20026;-67
2021/08/15 01:08:05;;;;;;;7.47;2.90;;;;;;;17.42;75.55;101788.63;5011958;28;20086;-66
2021/08/15 01:10:33;;;;;;;7.30;2.95;;;;;;;17.40;75.74;101777.13;5013990;28;20044;-66
2021/08/15 01:12:58;;;;;;;7.15;3.28;;;;;;;17.41;75.73;101781.53;5012326;28;20468;-67
2021/08/15 01:15:24;;;;;;;6.82;3.03;;;;;;;17.43;75.72;101779.59;5012351;28;20029;-66
2021/08/15 01:17:49;;;;;;;8.52;2.90;;;;;;;17.45;75.38;101767.00;5012102;28;20120;-66
2021/08/15 01:20:14;;;;;;;9.43;3.20;;;;;;;17.46;75.35;101760.69;4995843;28;20040;-66
2021/08/15 01:22:42;;;;;;;6.93;3.00;;;;;;;17.47;74.90;101763.28;5022104;28;20411;-66
2021/08/15 01:25:08;;;;;;;6.45;3.35;;;;;;;17.50;75.47;101764.91;5012482;28;20026;-67
2021/08/15 01:27:38;;;;;;;6.43;3.05;;;;;;;17.49;75.20;101771.22;5012186;28;20037;-66
2021/08/15 01:30:05;;;;;;;7.82;2.92;;;;;;;17.47;75.08;101771.31;5013391;28;20037;-66
2021/08/15 01:32:30;;;;;;;7.03;3.00;;;;;;;17.44;75.54;101763.47;5022282;28;20495;-66
2021/08/15 01:34:56;;;;;;;7.32;2.88;;;;;;;17.42;75.26;101764.50;5012434;28;20022;-66
2021/08/15 01:37:22;;;;;;;6.72;3.08;;;;;;;17.44;74.94;101757.25;5012404;28;20382;-66
2021/08/15 01:39:48;;;;;;;7.25;3.00;;;;;;;17.44;75.02;101755.44;5012211;28;20087;-66
2021/08/15 01:42:13;;;;;;;6.63;2.78;;;;;;;17.48;74.86;101745.38;5014530;28;20030;-67
2021/08/15 01:44:38;;;;;;;9.13;3.10;;;;;;;17.47;74.93;101762.44;5022018;28;20383;-65
2021/08/15 01:47:04;;;;;;;8.23;3.25;;;;;;;17.47;75.17;101759.75;5031973;28;20041;-66
2021/08/15 01:49:29;;;;;;;7.95;3.30;;;;;;;17.43;75.15;101767.09;5031959;28;20041;-66
2021/08/15 01:51:54;;;;;;;8.20;3.17;;;;;;;17.42;75.37;101767.19;5029418;28;20052;-66
2021/08/15 01:54:20;;;;;;;8.35;3.28;;;;;;;17.40;75.11;101755.69;5029550;28;20030;-66
2021/08/15 01:56:45;;;;;;;7.32;3.55;;;;;;;17.34;75.62;101752.44;5031730;28;20053;-67
2021/08/15 01:59:10;;;;;;;7.72;2.90;;;;;;;17.28;75.76;101754.63;5031575;28;20360;-66
2021/08/15 02:01:36;;;;;;;8.18;3.08;;;;;;;17.24;75.94;101745.91;5031147;28;20026;-66
2021/08/15 02:04:01;;;;;;;6.80;3.00;;;;;;;17.18;76.17;101738.22;5014585;28;20033;-66
2021/08/15 02:06:27;;;;;;;7.30;3.00;;;;;;;17.17;76.47;101732.03;5011417;28;20022;-65
2021/08/15 02:08:52;;;;;;;5.80;2.95;;;;;;;17.15;76.39;101723.22;5011346;28;20045;-66
2021/08/15 02:11:18;;;;;;;8.02;3.47;;;;;;;17.15;76.34;101725.03;5014638;28;20559;-65
2021/08/15 02:13:45;;;;;;;6.60;3.08;;;;;;;17.12;76.67;101722.53;5016462;28;20030;-66
2021/08/15 02:16:10;;;;;;;7.93;3.60;;;;;;;17.07;76.98;101712.06;5015127;28;20030;-66
2021/08/15 02:18:36;;;;;;;6.45;3.50;;;;;;;17.04;77.50;101705.09;5014486;28;20036;-66
2021/08/15 02:21:01;;;;;;;10.02;3.83;;;;;;;17.03;77.56;101703.38;5015857;28;20021;-66
2021/08/15 02:23:26;;;;;;;7.65;3.47;;;;;;;17.04;77.26;101701.56;5015656;28;20026;-66
2021/08/15 02:25:53;;;;;;;6.10;3.20;;;;;;;17.04;77.71;101704.25;5020397;28;20017;-66
2021/08/15 02:28:19;;;;;;;7.72;3.70;;;;;;;17.02;77.43;101706.13;5034541;28;20033;-66
2021/08/15 02:30:44;;;;;;;6.95;3.53;;;;;;;17.00;77.71;101708.91;5033037;28;20028;-66
2021/08/15 02:33:10;;;;;;;8.50;3.67;;;;;;;16.98;77.96;101701.91;5034057;28;20487;-65
2021/08/15 02:35:35;;;;;;;8.95;3.90;;;;;;;16.95;77.91;101686.91;5018938;28;20021;-65
2021/08/15 02:38:00;;;;;;;9.55;4.20;;;;;;;16.93;78.37;101675.44;5014627;28;20045;-66
2021/08/15 02:40:26;;;;;;;8.40;4.35;;;;;;;16.88;78.37;101678.34;5014866;28;20097;-66
2021/08/15 02:42:52;;;;;;;9.90;4.50;;;;;;;16.87;78.77;101678.44;5015432;28;20030;-66
2021/08/15 02:45:20;;;;;;;11.98;4.65;;;;;;;16.80;79.00;101677.94;5015301;28;20438;-64
2021/08/15 02:47:46;;;;;;;9.35;4.22;;;;;;;16.79;79.01;101676.22;5014912;28;20052;-66
2021/08/15 02:50:13;;;;;;;9.43;4.18;;;;;;;16.82;79.00;101686.72;5014906;28;20026;-66
2021/08/15 02:52:38;;;;;;;8.77;4.10;;;;;;;16.80;79.17;101655.66;5015876;28;20029;-66
2021/08/15 02:55:05;;;;;;;11.52;4.38;;;;;;;16.78;79.55;101671.81;5014900;28;20104;-66
2021/08/15 02:57:30;;;;;;;8.65;3.80;;;;;;;16.81;79.47;101678.78;5032873;28;20034;-66
2021/08/15 02:59:55;;;;;;;9.15;4.15;;;;;;;16.77;79.73;101677.25;5034498;28;20030;-66
2021/08/15 03:02:22;;;;;;;10.30;4.00;;;;;;;16.76;79.54;101691.56;5034237;28;20360;-64
2021/08/15 03:04:47;;;;;;;8.45;3.97;;;;;;;16.78;79.97;101703.06;5034365;28;20032;-66
2021/08/15 03:07:14;;;;;;;12.95;4.13;;;;;;;16.84;79.28;101697.31;5023444;28;20037;-66
2021/08/15 03:09:39;;;;;;;11.38;4.00;;;;;;;16.86;79.51;101690.94;5014649;28;20057;-66
2021/08/15 03:12:05;;;;;;;9.38;4.18;;;;;;;16.89;79.31;101689.91;5014696;28;20030;-66
2021/08/15 03:14:30;;;;;;;9.75;4.80;;;;;;;16.91;79.03;101682.69;5014190;28;20422;-65
2021/08/15 03:16:56;;;;;;;7.82;4.13;;;;;;;16.90;78.81;101685.44;5015219;28;20030;-65
2021/08/15 03:19:21;;;;;;;8.93;4.53;;;;;;;16.91;79.35;101677.34;5013392;28;20048;-65
2021/08/15 03:21:47;;;;;;;13.07;4.10;;;;;;;16.92;78.92;101672.84;5013314;28;20026;-64
2021/08/15 03:24:13;;;;;;;9.30;4.22;;;;;;;16.92;79.23;101680.88;5015065;28;20033;-65
2021/08/15 03:26:43;;;;;;;9.00;4.22;;;;;;;16.96;78.73;101687.78;5013820;28;20527;-66
2021/08/15 03:29:09;;;;;;;11.55;4.50;;;;;;;17.00;79.08;101681.28;5014759;28;20030;-66
2021/08/15 03:31:34;;;;;;;10.38;4.45;;;;;;;16.99;78.60;101674.22;5013768;28;20187;-65
2021/08/15 03:33:59;;;;;;;11.77;4.32;;;;;;;17.02;78.64;101677.56;5014598;28;20092;-67
2021/08/15 03:36:25;;;;;;;8.75;4.15;;;;;;;17.00;79.02;101666.09;5013631;28;20121;-66
2021/08/15 03:38:50;;;;;;;11.18;4.35;;;;;;;16.99;78.76;101656.34;5014470;28;20162;-66
2021/08/15 03:41:15;;;;;;;10.35;4.22;;;;;;;17.03;78.50;101651.66;5014180;28;20045;-66
2021/08/15 03:43:41;;;;;;;8.85;4.10;;;;;;;17.03;78.57;101652.53;5014494;28;20050;-66
2021/08/15 03:46:06;;;;;;;8.68;4.15;;;;;;;17.06;78.64;101646.16;5015297;28;20070;-66
2021/08/15 03:48:31;;;;;;;9.75;4.30;;;;;;;17.06;79.10;101650.63;5015115;28;20022;-67
2021/08/15 03:50:57;;;;;;;10.95;4.32;;;;;;;17.04;78.96;101648.91;5013612;28;20369;-66
2021/08/15 03:53:22;;;;;;;12.68;4.95;;;;;;;17.02;78.76;101652.63;5013895;28;20030;-66
2021/08/15 03:55:47;;;;;;;12.32;4.55;;;;;;;17.00;78.77;101644.69;5014946;28;20021;-67
2021/08/15 03:58:12;;;;;;;10.57;4.93;;;;;;;17.01;79.51;101651.75;5013847;28;20037;-66
2021/08/15 04:00:41;;;;;;;11.18;4.80;;;;;;;17.03;79.14;101657.00;5014790;28;20034;-66
2021/08/15 04:03:11;;;;;;;11.43;4.70;;;;;;;17.04;79.63;101642.69;5013569;28;20152;-66
2021/08/15 04:05:37;;;;;;;14.63;5.03;;;;;;;17.03;79.71;101644.53;5014394;28;20093;-66
2021/08/15 04:08:05;;;;;;;12.73;5.07;;;;;;;17.04;79.70;101643.53;5013403;28;20192;-66
2021/08/15 04:10:30;;;;;;;12.55;5.20;;;;;;;17.01;79.62;101646.41;5014512;28;20029;-66
2021/08/15 04:12:56;;;;;;;13.35;5.20;;;;;;;17.01;79.95;101637.53;5013579;28;20033;-66
2021/08/15 04:15:21;;;;;;;13.02;5.53;;;;;;;16.97;79.99;101627.94;5013689;28;20034;-66
2021/08/15 04:17:46;;;;;;;14.18;5.65;;;;;;;16.91;80.47;101629.19;5014153;28;20026;-66
2021/08/15 04:20:12;;;;;;;12.48;5.05;;;;;;;16.90;80.47;101631.91;5013441;28;20033;-66
2021/08/15 04:22:37;;;;;;;10.75;4.72;;;;;;;16.86;81.01;101624.06;5014200;28;20118;-66
2021/08/15 04:25:03;;;;;;;14.55;5.18;;;;;;;16.84;81.42;101622.44;5013323;28;20476;-67
2021/08/15 04:27:29;;;;;;;12.32;5.93;;;;;;;16.78;81.30;101615.63;5014472;28;20029;-66
2021/08/15 04:29:54;;;;;;;14.02;5.70;;;;;;;16.75;81.82;101618.47;5013496;28;20045;-66
2021/08/15 04:32:19;;;;;;;13.45;5.57;;;;;;;16.76;82.06;101612.19;5014499;28;20037;-66
2021/08/15 04:34:45;;;;;;;12.60;5.65;;;;;;;16.72;82.36;101616.00;5018367;28;20079;-66
2021/08/15 04:37:10;;;;;;;14.02;5.70;;;;;;;16.71;82.54;101619.63;5031125;28;20036;-66
2021/08/15 04:39:36;;;;;;;15.00;5.93;;;;;;;16.69;82.97;101605.50;5032912;28;20378;-66
2021/08/15 04:42:01;;;;;;;11.40;5.22;;;;;;;16.73;83.02;101606.16;5031312;28;20487;-66
2021/08/15 04:44:27;;;;;;;14.45;5.70;;;;;;;16.78;82.71;101601.41;5032613;28;20037;-66
2021/08/15 04:46:52;;;;;;;16.88;6.57;;;;;;;16.82;83.25;101594.94;5030795;28;20383;-65
2021/08/15 04:49:17;;;;;;;16.77;5.95;;;;;;;16.88;83.28;101602.59;5032796;28;20021;-66
2021/08/15 04:51:43;;;;;;;14.77;6.78;;;;;;;16.94;82.89;101594.22;5032559;28;20061;-66
2021/08/15 04:54:08;;;;;;;12.77;6.82;;;;;;;16.96;82.58;101599.50;5030876;28;20099;-66
2021/08/15 04:56:33;;;;;;;13.88;6.43;;;;;;;16.99;82.74;101596.63;5032312;28;20505;-65
2021/08/15 04:58:59;;;;;;;17.08;6.88;;;;;;;17.02;82.43;101591.94;5030795;28;20025;-64
2021/08/15 05:01:24;;;;;;;15.18;6.88;;;;;;;17.00;82.47;101588.50;5031466;28;20034;-66
2021/08/15 05:03:50;;;;;;;14.38;5.65;;;;;;;17.05;82.75;101596.25;5032147;28;20371;-65
2021/08/15 05:06:15;;;;;;;12.02;6.05;;;;;;;17.07;82.30;101601.50;5022365;28;20116;-65
2021/08/15 05:08:41;;;;;;;15.60;7.07;;;;;;;17.11;82.10;101598.56;5010600;28;20039;-65
2021/08/15 05:11:06;;;;;;;13.27;6.20;;;;;;;17.19;81.65;101598.09;5032365;28;20048;-66
2021/08/15 05:13:31;;;;;;;15.07;5.68;;;;;;;17.27;81.78;101601.16;5031705;28;20026;-66
2021/08/15 05:15:57;;;;;;;18.65;6.78;;;;;;;17.35;81.42;101596.22;5020785;28;20514;-65
2021/08/15 05:18:22;;;;;;;13.50;6.50;;;;;;;17.40;80.91;101590.56;5041205;28;20475;-65
2021/08/15 05:20:47;;;;;;;15.40;6.57;;;;;;;17.41;81.04;101592.28;5024251;28;20026;-63
2021/08/15 05:23:13;;;;;;;14.85;6.32;;;;;;;17.45;80.62;101590.28;5012271;28;20030;-64
2021/08/15 05:25:39;;;;;;;13.80;6.28;;;;;;;17.48;80.23;101593.63;5012652;28;20022;-65
2021/08/15 05:28:05;;;;;;;14.90;6.60;;;;;;;17.52;80.18;101597.00;5012177;28;20161;-65
2021/08/15 05:30:31;;;;;;;12.10;6.00;;;;;;;17.58;80.14;101588.53;5013727;28;20125;-65
2021/08/15 05:32:57;;;;;;;15.57;6.40;;;;;;;17.64;79.41;101600.72;5012539;28;20038;-64
2021/08/15 05:35:22;;;;;;;17.23;6.57;;;;;;;17.67;79.92;101595.16;5011552;28;20420;-66
2021/08/15 05:37:48;;;;;;;15.57;6.57;;;;;;;17.65;79.90;101581.00;5012230;28;20541;-64
2021/08/15 05:40:13;;;;;;;13.98;6.07;;;;;;;17.68;79.60;101589.69;5013240;28;20036;-64
2021/08/15 05:42:38;;;;;;;13.85;5.72;;;;;;;17.74;79.49;101582.25;5012189;28;20034;-65
2021/08/15 05:45:04;;;;;;;14.20;6.05;;;;;;;17.79;78.91;101580.13;5012807;28;20033;-65
2021/08/15 05:47:30;;;;;;;13.57;6.03;;;;;;;17.83;78.76;101579.81;5016184;28;20053;-66
2021/08/15 05:49:55;;;;;;;11.90;5.50;;;;;;;17.88;78.46;101581.34;5019003;28;20026;-66
2021/08/15 05:52:20;;;;;;;12.45;5.97;;;;;;;17.93;78.47;101573.88;5035876;28;20120;-62
2021/08/15 05:54:46;;;;;;;15.18;6.00;;;;;;;18.02;78.34;101573.34;5035787;28;20439;-65
2021/08/15 05:57:11;;;;;;;13.82;5.80;;;;;;;18.04;78.07;101570.56;5032408;28;20026;-65
2021/08/15 05:59:36;;;;;;;13.63;6.10;;;;;;;18.11;77.76;101566.53;5054608;28;20100;-66
2021/08/15 06:02:03;;;;;;;11.90;6.22;;;;;;;18.14;77.74;101577.03;5050765;28;20033;-66
2021/08/15 06:04:28;;;;;;;15.05;5.90;;;;;;;18.16;77.57;101584.00;5035184;28;20123;-65
2021/08/15 06:06:54;;;;;;;14.77;6.25;;;;;;;18.14;77.58;101572.50;5035768;28;20530;-66
2021/08/15 06:09:19;;;;;;;14.73;6.68;;;;;;;18.16;77.76;101573.28;5034972;28;20376;-64
2021/08/15 06:11:46;;;;;;;12.95;6.00;;;;;;;18.21;77.75;101581.03;5035727;28;20108;-66
2021/08/15 06:14:12;;;;;;;17.35;6.40;;;;;;;18.30;77.40;101574.19;5035573;28;20029;-66
2021/08/15 06:16:37;;;;;;;18.67;6.47;;;;;;;18.33;76.97;101576.69;5036119;28;20379;-66
2021/08/15 06:19:02;;;;;;;16.33;6.80;;;;;;;18.36;77.00;101583.66;5035234;28;20529;-64
2021/08/15 06:21:28;;;;;;;14.38;6.15;;;;;;;18.38;77.31;101579.91;5034908;28;20032;-65
2021/08/15 06:23:53;;;;;;;15.30;6.13;;;;;;;18.42;76.62;101581.44;5023779;28;20048;-66
2021/08/15 06:26:19;;;;;;;13.50;5.68;;;;;;;18.36;77.18;101572.94;5055285;28;20044;-64
2021/08/15 06:28:45;;;;;;;15.75;6.15;;;;;;;18.28;77.50;101571.63;5047156;28;20111;-66
2021/08/15 06:31:10;;;;;;;13.50;5.68;;;;;;;18.28;77.73;101574.28;5035680;28;20032;-65
2021/08/15 06:33:35;;;;;;;16.73;6.20;;;;;;;18.27;78.24;101571.72;5035273;28;20026;-65
2021/08/15 06:36:01;;;;;;;17.27;5.88;;;;;;;18.30;77.78;101568.81;5034282;28;20104;-63
2021/08/15 06:38:26;;;;;;;13.80;6.00;;;;;;;18.34;77.81;101573.06;5034848;28;20049;-65
2021/08/15 06:40:53;;;;;;;18.40;5.90;;;;;;;18.42;77.64;101567.19;5034612;28;20029;-64
2021/08/15 06:43:19;;;;;;;12.93;5.75;;;;;;;18.44;77.26;101568.78;5033176;28;20391;-62
2021/08/15 06:45:44;;;;;;;17.25;5.75;;;;;;;18.45;77.19;101566.97;5035395;28;20032;-65
2021/08/15 06:48:10;;;;;;;17.02;6.18;;;;;;;18.39;77.36;101570.91;5020002;28;20069;-64
2021/08/15 06:50:35;;;;;;;17.33;6.68;;;;;;;18.31;77.69;101575.91;5034344;28;20475;-66
2021/08/15 06:53:01;;;;;;;14.07;5.80;;;;;;;18.28;78.10;101574.28;5034119;28;20040;-66
2021/08/15 06:55:27;;;;;;;18.95;6.10;;;;;;;18.23;78.61;101565.69;5034400;28;20087;-65
2021/08/15 06:57:52;;;;;;;12.70;5.55;;;;;;;18.33;78.51;101572.16;5033615;28;20041;-65
2021/08/15 07:00:18;;;;;;;16.75;6.63;;;;;;;18.39;78.04;101573.59;5031985;28;20112;-65
2021/08/15 07:02:46;;;;;;;15.85;6.18;;;;;;;18.38;77.79;101566.50;5031628;28;20040;-67
2021/08/15 07:05:11;;;;;;;19.65;6.72;;;;;;;18.45;78.21;101569.63;5034430;28;20036;-67
2021/08/15 07:07:37;;;;;;;16.27;5.78;;;;;;;18.48;77.73;101564.09;5034405;28;20132;-66
2021/08/15 07:10:04;;;;;;;13.38;6.20;;;;;;;18.48;77.46;101559.56;5029620;28;20541;-64
2021/08/15 07:12:30;;;;;;;20.83;6.65;;;;;;;18.49;77.86;101560.41;5024717;28;20040;-66
2021/08/15 07:14:55;;;;;;;16.92;6.40;;;;;;;18.56;78.02;101564.41;5034087;28;20434;-66
2021/08/15 07:17:20;;;;;;;16.08;6.05;;;;;;;18.64;77.69;101570.16;5033541;28;20475;-62
2021/08/15 07:19:46;;;;;;;18.50;6.13;;;;;;;18.71;76.91;101572.38;5049856;28;20025;-66
2021/08/15 07:22:11;;;;;;;16.50;6.35;;;;;;;18.77;76.95;101566.59;5049279;28;20025;-65
2021/08/15 07:24:36;;;;;;;13.93;5.88;;;;;;;18.84;76.18;101563.41;5033794;28;20029;-65
2021/08/15 07:27:02;;;;;;;16.77;6.97;;;;;;;18.89;76.11;101568.47;5033617;28;20029;-65
2021/08/15 07:29:27;;;;;;;16.10;6.25;;;;;;;19.07;75.99;101558.31;5031040;28;20072;-65
2021/08/15 07:31:53;;;;;;;14.70;5.72;;;;;;;19.23;75.94;101557.25;5026158;28;20021;-64
2021/08/15 07:34:19;;;;;;;16.55;6.13;;;;;;;19.37;74.96;101551.75;5035350;28;20024;-63
2021/08/15 07:36:45;;;;;;;14.85;6.25;;;;;;;19.45;73.44;101560.13;5036765;28;20044;-65
2021/08/15 07:39:11;;;;;;;12.07;6.10;;;;;;;19.54;72.85;101560.44;5011452;28;20041;-66
2021/08/15 07:41:36;;;;;;;14.43;6.03;;;;;;;19.53;73.42;101558.72;5032618;28;20025;-64
2021/08/15 07:44:02;;;;;;;19.75;6.07;;;;;;;19.54;73.46;101555.94;5033090;28;20029;-65
2021/08/15 07:46:29;;;;;;;17.10;6.15;;;;;;;19.57;73.71;101550.34;5029134;28;20448;-65
2021/08/15 07:48:54;;;;;;;16.30;5.93;;;;;;;19.60;73.48;101552.81;5030492;28;20408;-65
2021/08/15 07:51:20;;;;;;;14.48;6.07;;;;;;;19.63;72.90;101560.63;5030115;28;20080;-64
2021/08/15 07:53:45;;;;;;;17.45;6.22;;;;;;;19.61;72.43;101553.66;5028814;28;20139;-66
2021/08/15 07:56:13;;;;;;;18.48;6.32;;;;;;;19.70;71.62;101550.31;5021169;28;20037;-66
2021/08/15 07:58:38;;;;;;;15.48;6.05;;;;;;;19.78;70.76;101550.63;5028709;28;20041;-66
2021/08/15 08:01:04;;;;;;;15.73;5.70;;;;;;;19.76;71.67;101557.09;5024841;28;20454;-65
2021/08/15 08:03:29;;;;;;;15.38;5.60;;;;;;;19.75;72.76;101558.88;5030462;28;20558;-65
2021/08/15 08:05:54;;;;;;;13.30;5.75;;;;;;;19.84;71.97;101564.63;5029950;28;20026;-65
2021/08/15 08:08:20;;;;;;;14.77;5.68;;;;;;;19.96;70.75;101551.13;5028560;28;20040;-63
2021/08/15 08:10:47;;;;;;;13.25;5.68;;;;;;;20.08;70.47;101552.06;5010528;28;20030;-65
2021/08/15 08:13:13;;;;;;;14.63;5.95;;;;;;;20.14;70.67;101556.09;5022177;28;20240;-66
2021/08/15 08:15:39;;;;;;;16.40;6.50;;;;;;;20.29;70.25;101555.00;5010255;28;20184;-64
2021/08/15 08:18:04;;;;;;;13.27;5.82;;;;;;;20.38;68.44;101547.19;5029117;28;20127;-65
2021/08/15 08:20:35;;;;;;;15.73;6.53;;;;;;;20.38;69.66;101545.34;5025307;28;20144;-65
2021/08/15 08:23:00;;;;;;;16.98;6.07;;;;;;;20.45;69.74;101543.06;5019976;28;20041;-65
2021/08/15 08:25:26;;;;;;;14.90;6.25;;;;;;;20.54;68.75;101549.59;5022430;28;20117;-63
2021/08/15 08:27:51;;;;;;;13.52;6.40;;;;;;;20.70;66.82;101542.06;5021300;28;20408;-65
2021/08/15 08:30:17;;;;;;;16.13;5.93;;;;;;;20.73;67.83;101547.22;5025439;28;20033;-65
2021/08/15 08:32:42;;;;;;;19.63;6.72;;;;;;;20.78;68.72;101544.16;5029326;28;20388;-67
2021/08/15 08:35:08;;;;;;;14.55;6.13;;;;;;;20.86;67.67;101535.53;5009748;28;20032;-66
2021/08/15 08:37:33;;;;;;;18.50;6.05;;;;;;;20.90;67.95;101532.47;5019531;28;20149;-63
2021/08/15 08:40:01;;;;;;;17.98;6.45;;;;;;;21.03;66.91;101537.75;5004323;28;20071;-66
2021/08/15 08:42:29;;;;;;;15.25;5.43;;;;;;;21.14;66.28;101538.72;5027514;28;20065;-66
2021/08/15 08:44:56;;;;;;;17.50;6.05;;;;;;;21.20;66.59;101527.47;5030650;28;20044;-67
2021/08/15 08:47:22;;;;;;;18.15;6.43;;;;;;;21.32;65.99;101526.50;5026271;28;20032;-65
2021/08/15 08:49:47;;;;;;;20.60;6.40;;;;;;;21.48;66.04;101536.91;5023538;28;20378;-67
2021/08/15 08:52:13;;;;;;;14.95;6.00;;;;;;;21.66;64.67;101531.06;5010995;28;20084;-66
2021/08/15 08:54:38;;;;;;;12.88;5.15;;;;;;;21.96;63.22;101533.09;5011508;28;20128;-66
2021/08/15 08:57:03;;;;;;;13.20;5.45;;;;;;;22.22;62.53;101528.22;5012259;28;20037;-66
2021/08/15 08:59:29;;;;;;;13.52;5.65;;;;;;;22.42;61.18;101533.81;5026162;28;20080;-66
2021/08/15 09:01:54;;;;;;;13.07;4.97;;;;;;;22.61;60.25;101535.81;5029584;28;20025;-66
2021/08/15 09:04:19;;;;;;;11.85;4.82;;;;;;;22.89;58.51;101528.03;5028392;28;20427;-64
2021/08/15 09:06:45;;;;;;;11.15;4.35;;;;;;;23.20;56.79;101526.25;5031276;28;20167;-66
2021/08/15 09:09:21;;;;;;;10.27;4.43;;;;;;;24.18;54.09;101521.16;5027940;28;20045;-67
2021/08/15 09:11:49;;;;;;;15.27;4.70;;;;;;;25.00;50.24;101515.34;5009531;28;20041;-67
2021/08/15 09:14:17;;;;;;;10.82;4.40;;;;;;;25.77;48.25;101515.16;5010969;28;20025;-67
2021/08/15 09:17:01;;;;;;;11.68;4.30;;;;;;;26.43;46.33;101511.28;5023714;28;20026;-67
2021/08/15 09:19:40;;;;;;;12.20;4.03;;;;;;;26.80;45.14;101509.38;5018708;28;20088;-65
2021/08/15 09:22:10;;;;;;;14.57;5.07;;;;;;;26.61;45.74;101519.41;5018622;28;20049;-63
2021/08/15 09:24:45;;;;;;;13.15;4.45;;;;;;;27.29;44.38;101516.94;5021228;28;20175;-65
2021/08/15 09:27:17;;;;;;;10.32;4.13;;;;;;;27.69;43.77;101507.28;5016891;28;20211;-64
2021/08/15 09:29:42;;;;;;;12.82;4.68;;;;;;;28.22;42.96;101513.34;5018407;28;20026;-65
2021/08/15 09:32:07;;;;;;;9.57;4.63;;;;;;;28.57;42.47;101510.47;5009338;28;20037;-64
2021/08/15 09:34:33;;;;;;;15.88;4.95;;;;;;;28.20;43.92;101503.66;5013252;28;20134;-65
2021/08/15 09:36:59;;;;;;;12.57;5.45;;;;;;;28.33;43.09;101505.91;5016877;28;20490;-65
2021/08/15 09:39:33;;;;;;;10.52;4.45;;;;;;;28.56;44.51;101506.91;5027278;28;20547;-67
2021/08/15 09:41:59;;;;;;;12.30;5.03;;;;;;;28.14;44.11;101507.91;5026766;28;20045;-65
2021/08/15 09:44:30;;;;;;;12.10;4.95;;;;;;;27.91;44.85;101513.97;5009378;28;20038;-65
2021/08/15 09:47:14;;;;;;;15.40;5.13;;;;;;;27.57;44.97;101504.03;5008913;28;20033;-68
2021/08/15 09:49:41;;;;;;;12.18;5.07;;;;;;;27.57;45.80;101492.28;5009377;28;20026;-66
2021/08/15 09:52:12;;;;;;;11.27;4.97;;;;;;;27.89;45.24;101493.38;5025213;28;20509;-64
2021/08/15 09:54:38;;;;;;;12.65;4.93;;;;;;;27.98;44.65;101499.69;5016242;28;20272;-66
2021/08/15 09:57:08;;;;;;;11.23;4.82;;;;;;;28.14;44.43;101490.75;5008462;28;20518;-66
2021/08/15 09:59:36;;;;;;;12.20;4.85;;;;;;;28.28;44.16;101492.78;5008795;28;20052;-65
2021/08/15 10:02:02;;;;;;;10.82;4.28;;;;;;;28.61;43.76;101496.34;5023945;28;20106;-66
2021/08/15 10:04:28;;;;;;;11.13;4.50;;;;;;;29.14;42.74;101495.06;5028754;28;20467;-67
2021/08/15 10:06:55;;;;;;;10.10;4.22;;;;;;;29.01;43.30;101493.72;5020130;28;20177;-64
2021/08/15 10:09:21;;;;;;;10.10;4.05;;;;;;;29.39;40.93;101490.41;5026533;28;20060;-64
2021/08/15 10:11:47;;;;;;;8.23;3.50;;;;;;;29.49;40.57;101490.16;5026394;28;20038;-65
2021/08/15 10:14:14;;;;;;;8.07;3.63;;;;;;;29.15;42.68;101480.41;5028684;28;20020;-66
2021/08/15 10:16:45;;;;;;;9.68;4.15;;;;;;;28.78;44.43;101490.88;5017707;28;20113;-67
2021/08/15 10:19:31;;;;;;;8.40;3.60;;;;;;;29.14;42.74;101481.44;5009172;28;20136;-66
2021/08/15 10:21:57;;;;;;;7.65;3.20;;;;;;;28.97;41.89;101476.03;5020802;28;20089;-66
2021/08/15 10:24:23;;;;;;;7.57;3.10;;;;;;;28.75;42.79;101470.28;5025542;28;20445;-67
2021/08/15 10:26:50;;;;;;;7.25;2.70;;;;;;;28.83;43.69;101477.59;5027311;28;20162;-65
2021/08/15 10:29:36;;;;;;;5.50;2.35;;;;;;;29.07;42.14;101468.50;5008811;28;20034;-66
2021/08/15 10:32:16;;;;;;;6.70;2.85;;;;;;;28.22;43.74;101474.41;5008224;28;20423;-66
2021/08/15 10:34:50;;;;;;;7.38;2.45;;;;;;;28.64;42.36;101467.88;5012209;28;20432;-67
2021/08/15 10:37:25;;;;;;;5.43;2.47;;;;;;;28.06;43.87;101467.09;5012716;28;20444;-66
2021/08/15 10:39:55;;;;;;;5.82;2.30;;;;;;;28.16;43.49;101461.44;5007332;28;20375;-65
2021/08/15 10:42:39;;;;;;;5.53;2.50;;;;;;;28.19;43.25;101453.81;5026319;28;20457;-65
2021/08/15 10:45:09;;;;;;;9.63;2.60;;;;;;;28.36;42.78;101461.97;5027908;28;20041;-66
2021/08/15 10:47:37;;;;;;;7.53;2.92;;;;;;;28.45;42.83;101444.59;5013131;28;20026;-68
2021/08/15 10:50:06;;;;;;;6.75;2.47;;;;;;;28.95;42.26;101439.91;5013030;28;20030;-66
2021/08/15 10:52:42;;;;;;;7.97;2.30;;;;;;;28.53;42.06;101450.03;5010765;28;20057;-66
2021/08/15 10:55:11;;;;;;;4.95;2.50;;;;;;;28.94;40.96;101436.34;5024612;28;20056;-65
2021/08/15 10:57:38;;;;;;;5.55;2.47;;;;;;;28.95;42.73;101431.72;5029906;28;20033;-65
2021/08/15 11:00:28;;;;;;;5.63;2.40;;;;;;;29.10;41.02;101435.41;5011259;28;20088;-65
2021/08/15 11:02:54;;;;;;;6.53;3.13;;;;;;;29.29;40.17;101443.38;5025670;28;20034;-66
2021/08/15 11:05:39;;;;;;;6.00;2.80;;;;;;;29.39;40.19;101436.66;5029823;28;20306;-65
2021/08/15 11:08:33;;;;;;;8.05;2.92;;;;;;;29.38;39.74;101439.59;5028716;28;20049;-65
2021/08/15 11:11:11;;;;;;;5.93;2.83;;;;;;;29.02;40.57;101424.53;5023901;28;20379;-67
2021/08/15 11:13:39;;;;;;;8.77;3.00;;;;;;;28.67;40.30;101434.03;5011759;28;20092;-67
2021/08/15 11:16:25;;;;;;;6.80;2.90;;;;;;;28.20;40.54;101424.69;5021510;28;20035;-67
2021/08/15 11:19:09;;;;;;;8.52;3.05;;;;;;;28.42;39.67;101432.16;5030171;28;20511;-67